Aviation Digital Data Service (ADDS)

Output produced by METARs form (2333 UTC 29 May 2020)
found at http://www.aviationweather.gov/metar/data/
 
METAR text: LFMV 292300Z AUTO VRB03KT 9999 OVC078 15/11 Q1019
Conditions at: LFMV (CAUMONT , FR) observed 2300 UTC 29 May 2020
Temperature: 15.0°C (59°F)
Dewpoint: 11.0°C (52°F) [RH = 77%]
Pressure (altimeter): 30.09 inches Hg (1019.0 mb)
Winds: variable direction winds at 3 MPH (3 knots; 1.5 m/s)
Visibility: 6 or more miles (10+ km)
Ceiling: 7800 feet AGL
Clouds: overcast cloud deck at 7800 feet AGL
Weather: no significant weather observed at this time